sensor_id;sensor_type;location;lat;lon;timestamp;pressure;altitude;pressure_sealevel;temperature;humidity
55685;BME280;41883;49.544;8.646;2022-11-24T00:01:23;99733.03;;;7.18;nan
55685;BME280;41883;49.544;8.646;2022-11-24T00:03:57;99734.22;;;7.23;nan
55685;BME280;41883;49.544;8.646;2022-11-24T00:06:23;99736.53;;;7.27;nan
55685;BME280;41883;49.544;8.646;2022-11-24T00:08:49;99736.09;;;7.31;nan
55685;BME280;41883;49.544;8.646;2022-11-24T00:11:18;99734.69;;;7.37;nan
55685;BME280;41883;49.544;8.646;2022-11-24T00:13:43;99736.88;;;7.41;nan
55685;BME280;41883;49.544;8.646;2022-11-24T00:16:22;99742.63;;;7.45;nan
55685;BME280;41883;49.544;8.646;2022-11-24T00:18:49;99744.13;;;7.48;nan
55685;BME280;41883;49.544;8.646;2022-11-24T00:21:16;99746.94;;;7.46;nan
55685;BME280;41883;49.544;8.646;2022-11-24T00:23:43;99745.94;;;7.47;nan
55685;BME280;41883;49.544;8.646;2022-11-24T00:26:14;99741.50;;;7.48;nan
55685;BME280;41883;49.544;8.646;2022-11-24T00:28:40;99740.81;;;7.45;nan
55685;BME280;41883;49.544;8.646;2022-11-24T00:31:22;99752.47;;;7.43;nan
55685;BME280;41883;49.544;8.646;2022-11-24T00:33:50;99752.41;;;7.35;nan
55685;BME280;41883;49.544;8.646;2022-11-24T00:36:17;99751.34;;;7.28;nan
55685;BME280;41883;49.544;8.646;2022-11-24T00:38:43;99755.69;;;7.19;nan
55685;BME280;41883;49.544;8.646;2022-11-24T00:41:09;99747.56;;;7.12;nan
55685;BME280;41883;49.544;8.646;2022-11-24T00:43:34;99750.00;;;7.06;nan
55685;BME280;41883;49.544;8.646;2022-11-24T00:46:00;99757.19;;;7.04;nan
55685;BME280;41883;49.544;8.646;2022-11-24T00:48:25;99764.41;;;7.01;nan
55685;BME280;41883;49.544;8.646;2022-11-24T00:51:05;99768.28;;;6.97;nan
55685;BME280;41883;49.544;8.646;2022-11-24T00:53:31;99776.47;;;6.94;nan
55685;BME280;41883;49.544;8.646;2022-11-24T00:55:57;99782.84;;;6.92;nan
55685;BME280;41883;49.544;8.646;2022-11-24T00:58:23;99778.84;;;6.88;nan
55685;BME280;41883;49.544;8.646;2022-11-24T01:00:49;99782.31;;;6.88;nan
55685;BME280;41883;49.544;8.646;2022-11-24T01:03:15;99783.28;;;6.87;nan
55685;BME280;41883;49.544;8.646;2022-11-24T01:05:41;99786.06;;;6.86;nan
55685;BME280;41883;49.544;8.646;2022-11-24T01:08:07;99787.72;;;6.87;nan
55685;BME280;41883;49.544;8.646;2022-11-24T01:10:32;99798.25;;;6.87;nan
55685;BME280;41883;49.544;8.646;2022-11-24T01:12:58;99801.69;;;6.87;nan
55685;BME280;41883;49.544;8.646;2022-11-24T01:15:24;99813.31;;;6.85;nan
55685;BME280;41883;49.544;8.646;2022-11-24T01:17:49;99819.53;;;6.84;nan
55685;BME280;41883;49.544;8.646;2022-11-24T01:20:15;99822.16;;;6.84;nan
55685;BME280;41883;49.544;8.646;2022-11-24T01:22:40;99817.19;;;6.80;nan
55685;BME280;41883;49.544;8.646;2022-11-24T01:25:07;99816.22;;;6.81;nan
55685;BME280;41883;49.544;8.646;2022-11-24T01:27:33;99811.13;;;6.80;nan
55685;BME280;41883;49.544;8.646;2022-11-24T01:29:59;99818.31;;;6.78;nan
55685;BME280;41883;49.544;8.646;2022-11-24T01:32:24;99815.81;;;6.76;nan
55685;BME280;41883;49.544;8.646;2022-11-24T01:34:49;99817.50;;;6.77;nan
55685;BME280;41883;49.544;8.646;2022-11-24T01:37:15;99824.56;;;6.77;nan
55685;BME280;41883;49.544;8.646;2022-11-24T01:39:40;99833.78;;;6.81;nan
55685;BME280;41883;49.544;8.646;2022-11-24T01:42:06;99832.53;;;6.85;nan
55685;BME280;41883;49.544;8.646;2022-11-24T01:44:32;99838.78;;;6.84;nan
55685;BME280;41883;49.544;8.646;2022-11-24T01:49:50;99834.34;;;6.85;nan
55685;BME280;41883;49.544;8.646;2022-11-24T01:52:22;99845.25;;;6.90;nan
55685;BME280;41883;49.544;8.646;2022-11-24T01:54:50;99840.94;;;6.98;nan
55685;BME280;41883;49.544;8.646;2022-11-24T01:57:24;99850.28;;;7.11;nan
55685;BME280;41883;49.544;8.646;2022-11-24T01:59:55;99846.59;;;7.21;nan
55685;BME280;41883;49.544;8.646;2022-11-24T02:02:22;99844.09;;;7.30;nan
55685;BME280;41883;49.544;8.646;2022-11-24T02:04:49;99858.97;;;7.39;nan
55685;BME280;41883;49.544;8.646;2022-11-24T02:07:15;99858.25;;;7.47;nan
55685;BME280;41883;49.544;8.646;2022-11-24T02:09:48;99856.00;;;7.52;nan
55685;BME280;41883;49.544;8.646;2022-11-24T02:12:15;99851.09;;;7.57;nan
55685;BME280;41883;49.544;8.646;2022-11-24T02:14:41;99853.16;;;7.63;nan
55685;BME280;41883;49.544;8.646;2022-11-24T02:17:07;99846.59;;;7.67;nan
55685;BME280;41883;49.544;8.646;2022-11-24T02:19:45;99848.78;;;7.72;nan
55685;BME280;41883;49.544;8.646;2022-11-24T02:22:26;99856.22;;;7.76;nan
55685;BME280;41883;49.544;8.646;2022-11-24T02:25:14;99851.13;;;7.75;nan
55685;BME280;41883;49.544;8.646;2022-11-24T02:27:42;99848.94;;;7.70;nan
55685;BME280;41883;49.544;8.646;2022-11-24T02:30:09;99844.25;;;7.64;nan
55685;BME280;41883;49.544;8.646;2022-11-24T02:32:38;99845.91;;;7.65;nan
55685;BME280;41883;49.544;8.646;2022-11-24T02:35:07;99852.16;;;7.64;nan
55685;BME280;41883;49.544;8.646;2022-11-24T02:37:32;99844.84;;;7.58;nan
55685;BME280;41883;49.544;8.646;2022-11-24T02:39:57;99845.16;;;7.55;nan
55685;BME280;41883;49.544;8.646;2022-11-24T02:42:23;99843.28;;;7.47;nan
55685;BME280;41883;49.544;8.646;2022-11-24T02:44:53;99838.22;;;7.36;nan
55685;BME280;41883;49.544;8.646;2022-11-24T02:47:19;99845.84;;;7.39;nan
55685;BME280;41883;49.544;8.646;2022-11-24T02:49:44;99853.19;;;7.35;nan
55685;BME280;41883;49.544;8.646;2022-11-24T02:52:10;99844.78;;;7.32;nan
55685;BME280;41883;49.544;8.646;2022-11-24T02:54:35;99848.50;;;7.29;nan
55685;BME280;41883;49.544;8.646;2022-11-24T02:57:00;99852.78;;;7.30;nan
55685;BME280;41883;49.544;8.646;2022-11-24T02:59:26;99839.09;;;7.27;nan
55685;BME280;41883;49.544;8.646;2022-11-24T03:01:52;99846.16;;;7.26;nan
55685;BME280;41883;49.544;8.646;2022-11-24T03:04:17;99846.34;;;7.25;nan
55685;BME280;41883;49.544;8.646;2022-11-24T03:06:42;99850.75;;;7.24;nan
55685;BME280;41883;49.544;8.646;2022-11-24T03:09:08;99857.94;;;7.22;nan
55685;BME280;41883;49.544;8.646;2022-11-24T03:11:35;99857.28;;;7.20;nan
55685;BME280;41883;49.544;8.646;2022-11-24T03:14:00;99861.19;;;7.16;nan
55685;BME280;41883;49.544;8.646;2022-11-24T03:16:26;99860.34;;;7.15;nan
55685;BME280;41883;49.544;8.646;2022-11-24T03:18:51;99865.44;;;7.17;nan
55685;BME280;41883;49.544;8.646;2022-11-24T03:21:17;99867.94;;;7.18;nan
55685;BME280;41883;49.544;8.646;2022-11-24T03:23:43;99861.88;;;7.18;nan
55685;BME280;41883;49.544;8.646;2022-11-24T03:26:10;99869.59;;;7.19;nan
55685;BME280;41883;49.544;8.646;2022-11-24T03:28:36;99873.50;;;7.15;nan
55685;BME280;41883;49.544;8.646;2022-11-24T03:31:01;99872.50;;;7.16;nan
55685;BME280;41883;49.544;8.646;2022-11-24T03:33:27;99875.97;;;7.17;nan
55685;BME280;41883;49.544;8.646;2022-11-24T03:35:52;99868.75;;;7.19;nan
55685;BME280;41883;49.544;8.646;2022-11-24T03:38:18;99869.31;;;7.22;nan
55685;BME280;41883;49.544;8.646;2022-11-24T03:40:43;99872.03;;;7.31;nan
55685;BME280;41883;49.544;8.646;2022-11-24T03:43:08;99870.31;;;7.39;nan
55685;BME280;41883;49.544;8.646;2022-11-24T03:45:34;99861.81;;;7.45;nan
55685;BME280;41883;49.544;8.646;2022-11-24T03:47:59;99863.75;;;7.53;nan
55685;BME280;41883;49.544;8.646;2022-11-24T03:50:25;99864.56;;;7.54;nan
55685;BME280;41883;49.544;8.646;2022-11-24T03:52:50;99866.88;;;7.57;nan
55685;BME280;41883;49.544;8.646;2022-11-24T03:55:16;99868.84;;;7.55;nan
55685;BME280;41883;49.544;8.646;2022-11-24T03:57:41;99869.38;;;7.58;nan
55685;BME280;41883;49.544;8.646;2022-11-24T04:00:07;99869.53;;;7.57;nan
55685;BME280;41883;49.544;8.646;2022-11-24T04:02:32;99868.41;;;7.59;nan
55685;BME280;41883;49.544;8.646;2022-11-24T04:04:58;99869.44;;;7.66;nan
55685;BME280;41883;49.544;8.646;2022-11-24T04:07:23;99873.28;;;7.72;nan
55685;BME280;41883;49.544;8.646;2022-11-24T04:09:48;99872.19;;;7.75;nan
55685;BME280;41883;49.544;8.646;2022-11-24T04:12:14;99880.59;;;7.78;nan
55685;BME280;41883;49.544;8.646;2022-11-24T04:14:58;99886.22;;;7.83;nan
55685;BME280;41883;49.544;8.646;2022-11-24T04:17:23;99887.44;;;7.89;nan
55685;BME280;41883;49.544;8.646;2022-11-24T04:19:48;99876.38;;;7.85;nan
55685;BME280;41883;49.544;8.646;2022-11-24T04:22:14;99872.84;;;7.95;nan
55685;BME280;41883;49.544;8.646;2022-11-24T04:24:39;99883.06;;;7.98;nan
55685;BME280;41883;49.544;8.646;2022-11-24T04:27:04;99880.97;;;8.01;nan
55685;BME280;41883;49.544;8.646;2022-11-24T04:29:30;99887.56;;;8.05;nan
55685;BME280;41883;49.544;8.646;2022-11-24T04:31:55;99883.16;;;8.06;nan
55685;BME280;41883;49.544;8.646;2022-11-24T04:34:20;99891.75;;;8.08;nan
55685;BME280;41883;49.544;8.646;2022-11-24T04:36:46;99896.69;;;8.11;nan
55685;BME280;41883;49.544;8.646;2022-11-24T04:39:11;99894.19;;;8.09;nan
55685;BME280;41883;49.544;8.646;2022-11-24T04:41:36;99898.50;;;8.11;nan
55685;BME280;41883;49.544;8.646;2022-11-24T04:44:01;99906.41;;;8.11;nan
55685;BME280;41883;49.544;8.646;2022-11-24T04:46:27;99914.81;;;8.14;nan
55685;BME280;41883;49.544;8.646;2022-11-24T04:48:52;99905.78;;;8.17;nan
55685;BME280;41883;49.544;8.646;2022-11-24T04:51:17;99902.34;;;8.16;nan
55685;BME280;41883;49.544;8.646;2022-11-24T04:53:43;99902.34;;;8.16;nan
55685;BME280;41883;49.544;8.646;2022-11-24T04:56:08;99906.47;;;8.19;nan
55685;BME280;41883;49.544;8.646;2022-11-24T04:58:34;99912.56;;;8.19;nan
55685;BME280;41883;49.544;8.646;2022-11-24T05:00:59;99914.22;;;8.20;nan
55685;BME280;41883;49.544;8.646;2022-11-24T05:03:24;99914.06;;;8.22;nan
55685;BME280;41883;49.544;8.646;2022-11-24T05:05:50;99925.59;;;8.21;nan
55685;BME280;41883;49.544;8.646;2022-11-24T05:08:15;99935.13;;;8.22;nan
55685;BME280;41883;49.544;8.646;2022-11-24T05:10:40;99937.25;;;8.18;nan
55685;BME280;41883;49.544;8.646;2022-11-24T05:13:10;99939.06;;;8.18;nan
55685;BME280;41883;49.544;8.646;2022-11-24T05:15:37;99944.16;;;8.19;nan
55685;BME280;41883;49.544;8.646;2022-11-24T05:18:04;99940.56;;;8.20;nan
55685;BME280;41883;49.544;8.646;2022-11-24T05:20:30;99939.56;;;8.21;nan
55685;BME280;41883;49.544;8.646;2022-11-24T05:23:00;99938.59;;;8.22;nan
55685;BME280;41883;49.544;8.646;2022-11-24T05:25:26;99932.34;;;8.23;nan
55685;BME280;41883;49.544;8.646;2022-11-24T05:27:51;99943.88;;;8.22;nan
55685;BME280;41883;49.544;8.646;2022-11-24T05:30:16;99938.31;;;8.25;nan
55685;BME280;41883;49.544;8.646;2022-11-24T05:32:41;99944.94;;;8.29;nan
55685;BME280;41883;49.544;8.646;2022-11-24T05:35:07;99957.94;;;8.31;nan
55685;BME280;41883;49.544;8.646;2022-11-24T05:37:33;99948.22;;;8.32;nan
55685;BME280;41883;49.544;8.646;2022-11-24T05:39:59;99962.22;;;8.32;nan
55685;BME280;41883;49.544;8.646;2022-11-24T05:42:24;99963.75;;;8.35;nan
55685;BME280;41883;49.544;8.646;2022-11-24T05:45:09;99968.63;;;8.29;nan
55685;BME280;41883;49.544;8.646;2022-11-24T05:47:36;99971.91;;;8.32;nan
55685;BME280;41883;49.544;8.646;2022-11-24T05:50:01;99971.91;;;8.32;nan
55685;BME280;41883;49.544;8.646;2022-11-24T05:52:27;99974.41;;;8.33;nan
55685;BME280;41883;49.544;8.646;2022-11-24T05:54:52;99975.09;;;8.35;nan
55685;BME280;41883;49.544;8.646;2022-11-24T05:57:17;99974.28;;;8.35;nan
55685;BME280;41883;49.544;8.646;2022-11-24T05:59:43;99973.28;;;8.36;nan
55685;BME280;41883;49.544;8.646;2022-11-24T06:02:09;99976.59;;;8.38;nan
55685;BME280;41883;49.544;8.646;2022-11-24T06:04:35;99967.06;;;8.37;nan
55685;BME280;41883;49.544;8.646;2022-11-24T06:07:01;99971.19;;;8.39;nan
55685;BME280;41883;49.544;8.646;2022-11-24T06:09:26;99966.78;;;8.40;nan
55685;BME280;41883;49.544;8.646;2022-11-24T06:11:52;99972.03;;;8.40;nan
55685;BME280;41883;49.544;8.646;2022-11-24T06:14:17;99974.78;;;8.38;nan
55685;BME280;41883;49.544;8.646;2022-11-24T06:16:42;99984.38;;;8.39;nan
55685;BME280;41883;49.544;8.646;2022-11-24T06:19:10;99971.78;;;8.33;nan
55685;BME280;41883;49.544;8.646;2022-11-24T06:21:36;99980.75;;;8.22;nan
55685;BME280;41883;49.544;8.646;2022-11-24T06:24:01;99982.31;;;8.15;nan
55685;BME280;41883;49.544;8.646;2022-11-24T06:26:27;99985.25;;;8.12;nan
55685;BME280;41883;49.544;8.646;2022-11-24T06:28:52;99975.31;;;8.06;nan
55685;BME280;41883;49.544;8.646;2022-11-24T06:31:18;99996.38;;;8.06;nan
55685;BME280;41883;49.544;8.646;2022-11-24T06:33:43;100000.59;;;7.99;nan
55685;BME280;41883;49.544;8.646;2022-11-24T06:36:13;99999.97;;;8.05;nan
55685;BME280;41883;49.544;8.646;2022-11-24T06:38:38;100018.13;;;8.08;nan
55685;BME280;41883;49.544;8.646;2022-11-24T06:41:06;100009.00;;;8.02;nan
55685;BME280;41883;49.544;8.646;2022-11-24T06:43:32;100020.97;;;7.97;nan
55685;BME280;41883;49.544;8.646;2022-11-24T06:45:58;100016.56;;;7.87;nan
55685;BME280;41883;49.544;8.646;2022-11-24T06:48:24;100022.28;;;7.83;nan
55685;BME280;41883;49.544;8.646;2022-11-24T06:50:51;100025.03;;;7.81;nan
55685;BME280;41883;49.544;8.646;2022-11-24T06:53:16;100026.34;;;7.77;nan
55685;BME280;41883;49.544;8.646;2022-11-24T06:55:43;100018.72;;;7.74;nan
55685;BME280;41883;49.544;8.646;2022-11-24T06:58:09;100030.34;;;7.72;nan
55685;BME280;41883;49.544;8.646;2022-11-24T07:00:37;100028.72;;;7.71;nan
55685;BME280;41883;49.544;8.646;2022-11-24T07:03:03;100032.47;;;7.68;nan
55685;BME280;41883;49.544;8.646;2022-11-24T07:05:28;100034.84;;;7.61;nan
55685;BME280;41883;49.544;8.646;2022-11-24T07:07:53;100039.97;;;7.63;nan
55685;BME280;41883;49.544;8.646;2022-11-24T07:10:19;100044.38;;;7.62;nan
55685;BME280;41883;49.544;8.646;2022-11-24T07:12:44;100048.69;;;7.63;nan
55685;BME280;41883;49.544;8.646;2022-11-24T07:15:10;100051.44;;;7.62;nan
55685;BME280;41883;49.544;8.646;2022-11-24T07:17:39;100056.72;;;7.62;nan
55685;BME280;41883;49.544;8.646;2022-11-24T07:20:06;100055.75;;;7.63;nan
55685;BME280;41883;49.544;8.646;2022-11-24T07:22:32;100061.69;;;7.65;nan
55685;BME280;41883;49.544;8.646;2022-11-24T07:24:57;100055.91;;;7.61;nan
55685;BME280;41883;49.544;8.646;2022-11-24T07:27:22;100069.56;;;7.65;nan
55685;BME280;41883;49.544;8.646;2022-11-24T07:29:48;100070.56;;;7.64;nan
55685;BME280;41883;49.544;8.646;2022-11-24T07:32:13;100080.09;;;7.65;nan
55685;BME280;41883;49.544;8.646;2022-11-24T07:34:38;100074.69;;;7.66;nan
55685;BME280;41883;49.544;8.646;2022-11-24T07:37:04;100079.00;;;7.68;nan
55685;BME280;41883;49.544;8.646;2022-11-24T07:39:29;100079.00;;;7.68;nan
55685;BME280;41883;49.544;8.646;2022-11-24T07:41:54;100083.41;;;7.67;nan
55685;BME280;41883;49.544;8.646;2022-11-24T07:44:20;100088.56;;;7.69;nan
55685;BME280;41883;49.544;8.646;2022-11-24T07:46:45;100099.91;;;7.69;nan
55685;BME280;41883;49.544;8.646;2022-11-24T07:49:10;100100.16;;;7.76;nan
55685;BME280;41883;49.544;8.646;2022-11-24T07:51:40;100088.50;;;7.78;nan
55685;BME280;41883;49.544;8.646;2022-11-24T07:54:06;100094.34;;;7.82;nan
55685;BME280;41883;49.544;8.646;2022-11-24T07:56:31;100097.63;;;7.84;nan
55685;BME280;41883;49.544;8.646;2022-11-24T07:58:57;100103.44;;;7.87;nan
55685;BME280;41883;49.544;8.646;2022-11-24T08:01:22;100102.63;;;7.87;nan
55685;BME280;41883;49.544;8.646;2022-11-24T08:03:47;100099.69;;;7.90;nan
55685;BME280;41883;49.544;8.646;2022-11-24T08:06:13;100102.88;;;7.94;nan
55685;BME280;41883;49.544;8.646;2022-11-24T08:08:39;100111.59;;;7.94;nan
55685;BME280;41883;49.544;8.646;2022-11-24T08:11:06;100117.69;;;7.95;nan
55685;BME280;41883;49.544;8.646;2022-11-24T08:13:32;100119.34;;;7.96;nan
55685;BME280;41883;49.544;8.646;2022-11-24T08:16:02;100124.34;;;7.99;nan
55685;BME280;41883;49.544;8.646;2022-11-24T08:18:28;100125.97;;;8.00;nan
55685;BME280;41883;49.544;8.646;2022-11-24T08:20:56;100129.44;;;8.00;nan
55685;BME280;41883;49.544;8.646;2022-11-24T08:23:21;100132.50;;;7.96;nan
55685;BME280;41883;49.544;8.646;2022-11-24T08:25:47;100124.38;;;7.89;nan
55685;BME280;41883;49.544;8.646;2022-11-24T08:28:12;100130.47;;;7.90;nan
55685;BME280;41883;49.544;8.646;2022-11-24T08:30:37;100134.16;;;7.97;nan
55685;BME280;41883;49.544;8.646;2022-11-24T08:33:06;100134.91;;;8.17;nan
55685;BME280;41883;49.544;8.646;2022-11-24T08:35:35;100134.41;;;8.31;nan
55685;BME280;41883;49.544;8.646;2022-11-24T08:38:00;100124.72;;;8.32;nan
55685;BME280;41883;49.544;8.646;2022-11-24T08:40:26;100138.03;;;8.40;nan
55685;BME280;41883;49.544;8.646;2022-11-24T08:42:51;100138.72;;;8.42;nan
55685;BME280;41883;49.544;8.646;2022-11-24T08:45:17;100136.47;;;8.47;nan
55685;BME280;41883;49.544;8.646;2022-11-24T08:47:42;100147.75;;;8.57;nan
55685;BME280;41883;49.544;8.646;2022-11-24T08:50:08;100149.50;;;8.66;nan
55685;BME280;41883;49.544;8.646;2022-11-24T08:52:33;100145.44;;;8.72;nan
55685;BME280;41883;49.544;8.646;2022-11-24T08:54:59;100154.72;;;8.76;nan
55685;BME280;41883;49.544;8.646;2022-11-24T08:57:24;100160.53;;;8.80;nan
55685;BME280;41883;49.544;8.646;2022-11-24T08:59:49;100160.59;;;8.88;nan
55685;BME280;41883;49.544;8.646;2022-11-24T09:02:15;100165.75;;;8.89;nan
55685;BME280;41883;49.544;8.646;2022-11-24T09:04:40;100176.72;;;8.85;nan
55685;BME280;41883;49.544;8.646;2022-11-24T09:07:06;100168.97;;;8.83;nan
55685;BME280;41883;49.544;8.646;2022-11-24T09:09:31;100182.59;;;8.79;nan
55685;BME280;41883;49.544;8.646;2022-11-24T09:11:56;100185.97;;;8.71;nan
55685;BME280;41883;49.544;8.646;2022-11-24T09:14:22;100186.53;;;8.65;nan
55685;BME280;41883;49.544;8.646;2022-11-24T09:16:47;100180.44;;;8.64;nan
55685;BME280;41883;49.544;8.646;2022-11-24T09:19:12;100177.97;;;8.63;nan
55685;BME280;41883;49.544;8.646;2022-11-24T09:21:38;100182.84;;;8.58;nan
55685;BME280;41883;49.544;8.646;2022-11-24T09:24:05;100182.31;;;8.54;nan
55685;BME280;41883;49.544;8.646;2022-11-24T09:26:33;100176.78;;;8.75;nan
55685;BME280;41883;49.544;8.646;2022-11-24T09:29:00;100179.53;;;9.01;nan
55685;BME280;41883;49.544;8.646;2022-11-24T09:31:29;100187.06;;;9.14;nan
55685;BME280;41883;49.544;8.646;2022-11-24T09:33:55;100193.94;;;9.25;nan
55685;BME280;41883;49.544;8.646;2022-11-24T09:36:20;100197.44;;;9.33;nan
55685;BME280;41883;49.544;8.646;2022-11-24T09:38:46;100205.97;;;9.45;nan
55685;BME280;41883;49.544;8.646;2022-11-24T09:49:38;100227.31;;;9.52;nan
55685;BME280;41883;49.544;8.646;2022-11-24T09:52:13;100221.72;;;9.55;nan
55685;BME280;41883;49.544;8.646;2022-11-24T09:54:51;100222.97;;;9.69;nan
55685;BME280;41883;49.544;8.646;2022-11-24T09:57:19;100228.94;;;9.71;nan
55685;BME280;41883;49.544;8.646;2022-11-24T09:59:46;100232.88;;;9.67;nan
55685;BME280;41883;49.544;8.646;2022-11-24T10:02:11;100236.13;;;9.61;nan
55685;BME280;41883;49.544;8.646;2022-11-24T10:04:41;100239.22;;;9.56;nan
55685;BME280;41883;49.544;8.646;2022-11-24T10:28:58;100244.69;;;9.63;nan
55685;BME280;41883;49.544;8.646;2022-11-24T10:31:29;100253.03;;;9.68;nan
55685;BME280;41883;49.544;8.646;2022-11-24T10:34:00;100256.84;;;9.73;nan
55685;BME280;41883;49.544;8.646;2022-11-24T10:36:41;100260.81;;;9.95;nan
55685;BME280;41883;49.544;8.646;2022-11-24T10:39:40;100263.41;;;10.13;nan
55685;BME280;41883;49.544;8.646;2022-11-24T10:42:19;100255.66;;;10.20;nan
55685;BME280;41883;49.544;8.646;2022-11-24T10:45:16;100248.75;;;10.19;nan
55685;BME280;41883;49.544;8.646;2022-11-24T10:47:42;100250.72;;;10.17;nan
55685;BME280;41883;49.544;8.646;2022-11-24T10:50:26;100247.25;;;10.16;nan
55685;BME280;41883;49.544;8.646;2022-11-24T10:53:20;100242.47;;;10.20;nan
55685;BME280;41883;49.544;8.646;2022-11-24T10:58:22;100243.59;;;10.17;nan
55685;BME280;41883;49.544;8.646;2022-11-24T11:00:48;100241.97;;;10.16;nan
55685;BME280;41883;49.544;8.646;2022-11-24T11:03:17;100256.34;;;10.22;nan
55685;BME280;41883;49.544;8.646;2022-11-24T11:05:49;100254.47;;;10.32;nan
55685;BME280;41883;49.544;8.646;2022-11-24T11:10:41;100248.28;;;10.50;nan
55685;BME280;41883;49.544;8.646;2022-11-24T11:13:29;100253.44;;;10.59;nan
55685;BME280;41883;49.544;8.646;2022-11-24T11:15:56;100257.63;;;10.70;nan
55685;BME280;41883;49.544;8.646;2022-11-24T11:18:29;100256.84;;;10.86;nan
55685;BME280;41883;49.544;8.646;2022-11-24T11:20:57;100255.88;;;10.87;nan
55685;BME280;41883;49.544;8.646;2022-11-24T11:23:34;100264.16;;;11.00;nan
55685;BME280;41883;49.544;8.646;2022-11-24T11:29:01;100267.22;;;11.38;nan
55685;BME280;41883;49.544;8.646;2022-11-24T11:31:27;100267.59;;;11.60;nan
55685;BME280;41883;49.544;8.646;2022-11-24T11:34:19;100271.91;;;11.85;nan
55685;BME280;41883;49.544;8.646;2022-11-24T11:36:48;100267.09;;;12.05;nan
55685;BME280;41883;49.544;8.646;2022-11-24T11:42:01;100270.94;;;11.95;nan
55685;BME280;41883;49.544;8.646;2022-11-24T11:44:32;100270.09;;;11.78;nan
55685;BME280;41883;49.544;8.646;2022-11-24T11:47:02;100273.41;;;11.63;nan
55685;BME280;41883;49.544;8.646;2022-11-24T11:49:33;100275.69;;;11.42;nan
55685;BME280;41883;49.544;8.646;2022-11-24T12:00:22;100288.94;;;10.91;nan
55685;BME280;41883;49.544;8.646;2022-11-24T12:02:56;100289.13;;;10.98;nan
55685;BME280;41883;49.544;8.646;2022-11-24T12:11:29;100292.88;;;11.46;nan
55685;BME280;41883;49.544;8.646;2022-11-24T12:14:02;100300.16;;;11.44;nan
55685;BME280;41883;49.544;8.646;2022-11-24T12:16:44;100294.22;;;11.42;nan
55685;BME280;41883;49.544;8.646;2022-11-24T12:19:31;100302.81;;;11.44;nan
55685;BME280;41883;49.544;8.646;2022-11-24T12:22:05;100306.78;;;11.48;nan
55685;BME280;41883;49.544;8.646;2022-11-24T12:24:50;100303.31;;;11.56;nan
55685;BME280;41883;49.544;8.646;2022-11-24T12:27:38;100305.16;;;11.55;nan
55685;BME280;41883;49.544;8.646;2022-11-24T12:30:17;100308.13;;;11.60;nan
55685;BME280;41883;49.544;8.646;2022-11-24T12:33:00;100302.50;;;11.55;nan
55685;BME280;41883;49.544;8.646;2022-11-24T12:35:41;100303.66;;;11.44;nan
55685;BME280;41883;49.544;8.646;2022-11-24T12:41:56;100306.13;;;11.46;nan
55685;BME280;41883;49.544;8.646;2022-11-24T12:44:46;100307.81;;;11.47;nan
55685;BME280;41883;49.544;8.646;2022-11-24T12:47:22;100305.97;;;11.47;nan
55685;BME280;41883;49.544;8.646;2022-11-24T12:50:02;100308.13;;;11.52;nan
55685;BME280;41883;49.544;8.646;2022-11-24T12:52:52;100307.13;;;11.53;nan
55685;BME280;41883;49.544;8.646;2022-11-24T12:55:20;100310.75;;;11.44;nan
55685;BME280;41883;49.544;8.646;2022-11-24T13:00:21;100311.25;;;11.47;nan
55685;BME280;41883;49.544;8.646;2022-11-24T13:05:45;100319.84;;;11.25;nan
55685;BME280;41883;49.544;8.646;2022-11-24T13:08:15;100323.06;;;11.11;nan
55685;BME280;41883;49.544;8.646;2022-11-24T13:10:40;100317.63;;;11.04;nan
55685;BME280;41883;49.544;8.646;2022-11-24T13:13:09;100319.91;;;10.99;nan
55685;BME280;41883;49.544;8.646;2022-11-24T13:21:35;100316.94;;;11.02;nan
55685;BME280;41883;49.544;8.646;2022-11-24T13:29:37;100321.06;;;11.04;nan
55685;BME280;41883;49.544;8.646;2022-11-24T13:39:58;100327.66;;;11.51;nan
55685;BME280;41883;49.544;8.646;2022-11-24T13:42:26;100321.72;;;11.57;nan
55685;BME280;41883;49.544;8.646;2022-11-24T13:45:08;100325.00;;;11.51;nan
55685;BME280;41883;49.544;8.646;2022-11-24T13:47:49;100323.19;;;11.52;nan
55685;BME280;41883;49.544;8.646;2022-11-24T13:52:44;100319.41;;;11.62;nan
55685;BME280;41883;49.544;8.646;2022-11-24T13:57:40;100318.44;;;11.96;nan
55685;BME280;41883;49.544;8.646;2022-11-24T14:00:30;100319.28;;;12.05;nan
55685;BME280;41883;49.544;8.646;2022-11-24T14:03:23;100317.78;;;12.02;nan
55685;BME280;41883;49.544;8.646;2022-11-24T14:05:48;100323.22;;;11.76;nan
55685;BME280;41883;49.544;8.646;2022-11-24T14:08:22;100318.56;;;11.54;nan
55685;BME280;41883;49.544;8.646;2022-11-24T14:10:50;100326.97;;;11.41;nan
55685;BME280;41883;49.544;8.646;2022-11-24T14:18:28;100323.56;;;11.06;nan
55685;BME280;41883;49.544;8.646;2022-11-24T14:20:55;100323.38;;;10.99;nan
55685;BME280;41883;49.544;8.646;2022-11-24T14:23:21;100316.06;;;10.93;nan
55685;BME280;41883;49.544;8.646;2022-11-24T14:25:48;100315.50;;;10.81;nan
55685;BME280;41883;49.544;8.646;2022-11-24T14:28:20;100308.34;;;10.66;nan
55685;BME280;41883;49.544;8.646;2022-11-24T14:30:46;100317.69;;;10.52;nan
55685;BME280;41883;49.544;8.646;2022-11-24T14:33:11;100317.28;;;10.38;nan
55685;BME280;41883;49.544;8.646;2022-11-24T14:35:43;100322.78;;;10.27;nan
55685;BME280;41883;49.544;8.646;2022-11-24T14:38:10;100316.41;;;10.12;nan
55685;BME280;41883;49.544;8.646;2022-11-24T14:40:54;100323.88;;;9.98;nan
55685;BME280;41883;49.544;8.646;2022-11-24T14:43:27;100325.56;;;9.82;nan
55685;BME280;41883;49.544;8.646;2022-11-24T14:45:59;100320.34;;;9.72;nan
55685;BME280;41883;49.544;8.646;2022-11-24T14:48:30;100333.19;;;9.67;nan
55685;BME280;41883;49.544;8.646;2022-11-24T14:53:41;100329.50;;;9.60;nan
55685;BME280;41883;49.544;8.646;2022-11-24T14:56:09;100337.09;;;9.63;nan
55685;BME280;41883;49.544;8.646;2022-11-24T14:58:35;100333.06;;;9.68;nan
55685;BME280;41883;49.544;8.646;2022-11-24T15:01:19;100336.66;;;9.67;nan
55685;BME280;41883;49.544;8.646;2022-11-24T15:03:45;100345.13;;;9.71;nan
55685;BME280;41883;49.544;8.646;2022-11-24T15:06:17;100341.47;;;9.72;nan
55685;BME280;41883;49.544;8.646;2022-11-24T15:08:46;100345.25;;;9.69;nan
55685;BME280;41883;49.544;8.646;2022-11-24T15:11:12;100343.44;;;9.70;nan